Time;durP1;ratioP1;P1;durP2;ratioP2;P2;SDS_P1;SDS_P2;PMS_P1;PMS_P2;Temp;Humidity;BMP_temperature;BMP_pressure;BME280_temperature;BME280_humidity;BME280_pressure;Samples;Min_cycle;Max_cycle;Signal;HPM_P1;HPM_P2
2022/09/16 00:01:19;;;;;;;;;;;12.20;99.90;;;;;;5109057;28;19916;-74
2022/09/16 00:03:45;;;;;;;;;;;12.20;99.90;;;;;;5114955;28;19916;-83
2022/09/16 00:06:21;;;;;;;;;;;12.20;99.90;;;;;;5111622;28;20012;-78
2022/09/16 00:08:49;;;;;;;;;;;12.20;99.90;;;;;;5107456;28;19912;-74
2022/09/16 00:11:15;;;;;;;;;;;12.20;99.90;;;;;;5105707;28;19971;-75
2022/09/16 00:13:41;;;;;;;;;;;12.30;99.90;;;;;;5101678;28;19909;-76
2022/09/16 00:16:08;;;;;;;;;;;12.30;99.90;;;;;;5114792;28;20251;-75
2022/09/16 00:18:33;;;;;;;;;;;12.30;99.90;;;;;;5086013;28;19939;-77
2022/09/16 00:20:59;;;;;;;;;;;12.30;99.90;;;;;;5110534;28;19924;-75
2022/09/16 00:23:24;;;;;;;;;;;12.40;99.90;;;;;;5090774;28;19926;-75
2022/09/16 00:25:51;;;;;;;;;;;12.40;99.90;;;;;;5103357;28;19934;-76
2022/09/16 00:28:17;;;;;;;;;;;12.40;99.90;;;;;;5103443;28;20330;-74
2022/09/16 00:30:43;;;;;;;;;;;12.30;99.90;;;;;;5107845;28;19912;-74
2022/09/16 00:33:09;;;;;;;;;;;12.30;99.90;;;;;;5093619;28;19919;-75
2022/09/16 00:35:34;;;;;;;;;;;12.30;99.90;;;;;;5096178;28;19916;-75
2022/09/16 00:38:00;;;;;;;;;;;12.30;99.90;;;;;;5096522;28;19923;-76
2022/09/16 00:40:25;;;;;;;;;;;12.30;99.90;;;;;;5093273;28;19915;-76
2022/09/16 00:42:51;;;;;;;;;;;12.30;99.90;;;;;;5108625;28;20321;-79
2022/09/16 00:45:22;;;;;;;;;;;12.30;99.90;;;;;;5111450;28;20206;-79
2022/09/16 00:47:50;;;;;;;;;;;12.30;99.90;;;;;;5086114;28;19912;-75
2022/09/16 00:50:37;;;;;;;;;;;12.40;99.90;;;;;;5089987;28;19920;-76
2022/09/16 00:53:04;;;;;;;;;;;12.40;99.90;;;;;;5095558;28;19919;-79
2022/09/16 00:55:32;;;;;;;;;;;12.40;99.90;;;;;;5108852;28;20365;-76
2022/09/16 00:58:01;;;;;;;;;;;12.50;99.90;;;;;;5096592;28;19916;-76
2022/09/16 01:00:27;;;;;;;;;;;12.40;99.90;;;;;;5096671;28;19939;-75
2022/09/16 01:02:52;;;;;;;;;;;12.40;99.90;;;;;;5097701;28;19985;-75
2022/09/16 01:05:19;;;;;;;;;;;12.30;99.90;;;;;;5101453;28;20192;-74
2022/09/16 01:07:49;;;;;;;;;;;12.20;99.90;;;;;;5102403;28;19919;-75
2022/09/16 01:10:16;;;;;;;;;;;12.10;99.90;;;;;;5079706;28;19936;-74
2022/09/16 01:12:43;;;;;;;;;;;12.00;99.90;;;;;;5100197;28;19912;-75
2022/09/16 01:15:09;;;;;;;;;;;11.90;99.90;;;;;;5098440;28;20287;-74
2022/09/16 01:17:41;;;;;;;;;;;11.80;99.90;;;;;;5079070;28;19965;-74
2022/09/16 01:20:25;;;;;;;;;;;11.80;99.90;;;;;;5097297;28;19924;-74
2022/09/16 01:22:57;;;;;;;;;;;11.80;99.90;;;;;;5103768;28;20243;-74
2022/09/16 01:25:49;;;;;;;;;;;11.70;99.90;;;;;;5101508;28;19947;-74
2022/09/16 01:28:20;;;;;;;;;;;11.70;99.90;;;;;;5074922;28;20325;-74
2022/09/16 01:30:52;;;;;;;;;;;11.80;99.90;;;;;;5108074;28;19912;-74
2022/09/16 01:33:38;;;;;;;;;;;11.80;99.90;;;;;;5105093;28;19964;-75
2022/09/16 01:36:06;;;;;;;;;;;11.80;99.90;;;;;;5095442;28;20315;-75
2022/09/16 01:38:32;;;;;;;;;;;11.90;99.90;;;;;;5097428;28;20001;-73
2022/09/16 01:41:07;;;;;;;;;;;11.90;99.90;;;;;;5079557;28;19958;-74
2022/09/16 01:43:44;;;;;;;;;;;12.00;99.90;;;;;;5100797;28;19912;-74
2022/09/16 01:46:10;;;;;;;;;;;12.00;99.90;;;;;;5097327;28;19912;-74
2022/09/16 01:48:42;;;;;;;;;;;12.20;99.90;;;;;;5077238;28;19923;-74
2022/09/16 01:51:20;;;;;;;;;;;12.20;99.90;;;;;;5094332;28;20223;-74
2022/09/16 01:54:02;;;;;;;;;;;12.10;99.90;;;;;;5095336;28;20231;-75
2022/09/16 01:56:28;;;;;;;;;;;12.00;99.90;;;;;;5097142;28;19928;-75
2022/09/16 01:58:59;;;;;;;;;;;12.00;99.90;;;;;;5095720;28;19920;-74
2022/09/16 02:01:36;;;;;;;;;;;12.00;99.90;;;;;;5076222;28;19911;-74
2022/09/16 02:04:05;;;;;;;;;;;11.90;99.90;;;;;;5094428;28;19915;-74
2022/09/16 02:06:32;;;;;;;;;;;11.90;99.90;;;;;;5095857;28;19919;-75
2022/09/16 02:09:00;;;;;;;;;;;11.90;99.90;;;;;;5098942;28;19957;-74
2022/09/16 02:11:25;;;;;;;;;;;11.90;99.90;;;;;;5094756;28;19923;-74
2022/09/16 02:13:57;;;;;;;;;;;11.80;99.90;;;;;;5098948;28;19907;-74
2022/09/16 02:16:44;;;;;;;;;;;11.80;99.90;;;;;;5085334;28;20230;-74
2022/09/16 02:19:20;;;;;;;;;;;11.80;99.90;;;;;;5098072;28;20018;-74
2022/09/16 02:21:47;;;;;;;;;;;12.00;99.90;;;;;;5093818;28;19912;-74
2022/09/16 02:24:15;;;;;;;;;;;12.10;99.90;;;;;;5080650;28;19993;-77
2022/09/16 02:26:45;;;;;;;;;;;12.10;99.90;;;;;;5095151;28;19919;-79
2022/09/16 02:29:16;;;;;;;;;;;12.00;99.90;;;;;;5094462;28;20293;-78
2022/09/16 02:31:43;;;;;;;;;;;12.00;99.90;;;;;;5076416;28;19912;-76
2022/09/16 02:34:13;;;;;;;;;;;12.00;99.90;;;;;;5107229;27;20490;-76
2022/09/16 02:36:41;;;;;;;;;;;11.90;99.90;;;;;;5119652;28;20279;-75
2022/09/16 02:39:09;;;;;;;;;;;11.90;99.90;;;;;;5099871;28;19916;-74
2022/09/16 02:41:36;;;;;;;;;;;11.80;99.90;;;;;;5111368;28;20302;-75
2022/09/16 02:44:02;;;;;;;;;;;11.70;99.90;;;;;;5090353;28;19916;-74
2022/09/16 02:46:28;;;;;;;;;;;11.70;99.90;;;;;;5116505;27;19951;-74
2022/09/16 02:49:19;;;;;;;;;;;11.70;99.90;;;;;;5106384;27;19952;-74
2022/09/16 02:51:45;;;;;;;;;;;11.60;99.90;;;;;;5071375;28;19920;-74
2022/09/16 02:54:18;;;;;;;;;;;11.50;99.90;;;;;;5113657;27;20320;-74
2022/09/16 02:56:44;;;;;;;;;;;11.50;99.90;;;;;;5117023;27;20002;-74
2022/09/16 02:59:10;;;;;;;;;;;11.60;99.90;;;;;;5101044;28;20093;-76
2022/09/16 03:01:38;;;;;;;;;;;11.60;99.90;;;;;;5120713;28;19961;-76
2022/09/16 03:04:03;;;;;;;;;;;11.60;99.90;;;;;;5084093;28;19915;-74
2022/09/16 03:06:34;;;;;;;;;;;11.60;99.90;;;;;;5115127;27;19912;-76
2022/09/16 03:09:01;;;;;;;;;;;11.60;99.90;;;;;;5119332;27;20023;-74
2022/09/16 03:11:46;;;;;;;;;;;11.60;99.90;;;;;;5120942;27;20310;-74
2022/09/16 03:14:21;;;;;;;;;;;11.70;99.90;;;;;;5086671;28;19991;-74
2022/09/16 03:16:49;;;;;;;;;;;11.70;99.90;;;;;;5115663;27;19911;-75
2022/09/16 03:19:14;;;;;;;;;;;11.60;99.90;;;;;;5086783;28;19959;-75
2022/09/16 03:21:49;;;;;;;;;;;11.60;99.90;;;;;;5114832;27;19947;-76
2022/09/16 03:24:33;;;;;;;;;;;11.60;99.90;;;;;;5111996;28;19920;-74
2022/09/16 03:27:01;;;;;;;;;;;11.60;99.90;;;;;;5115085;27;20279;-74
2022/09/16 03:29:32;;;;;;;;;;;11.50;99.90;;;;;;5117343;27;19912;-75
2022/09/16 03:32:14;;;;;;;;;;;11.50;99.90;;;;;;5101466;27;20559;-74
2022/09/16 03:34:45;;;;;;;;;;;11.50;99.90;;;;;;5095493;28;19908;-74
2022/09/16 03:37:14;;;;;;;;;;;11.50;99.90;;;;;;5102305;27;19916;-78
2022/09/16 03:39:40;;;;;;;;;;;11.40;99.90;;;;;;5089306;28;19919;-75
2022/09/16 03:42:08;;;;;;;;;;;11.40;99.90;;;;;;5098627;28;19938;-74
2022/09/16 03:44:34;;;;;;;;;;;11.30;99.90;;;;;;5090162;28;19916;-74
2022/09/16 03:47:01;;;;;;;;;;;11.20;99.90;;;;;;5104180;28;19954;-74
2022/09/16 03:49:27;;;;;;;;;;;11.20;99.90;;;;;;5104941;28;19919;-74
2022/09/16 03:51:52;;;;;;;;;;;11.10;99.90;;;;;;5108481;28;19912;-74
2022/09/16 03:54:18;;;;;;;;;;;11.10;99.90;;;;;;5108699;28;19916;-74
2022/09/16 03:56:43;;;;;;;;;;;11.10;99.90;;;;;;5088795;28;20028;-74
2022/09/16 03:59:09;;;;;;;;;;;11.20;99.90;;;;;;5097527;28;19940;-74
2022/09/16 04:01:34;;;;;;;;;;;11.10;99.90;;;;;;5112755;28;20276;-74
2022/09/16 04:04:00;;;;;;;;;;;11.20;99.90;;;;;;5115379;28;19995;-74
2022/09/16 04:06:25;;;;;;;;;;;11.20;99.90;;;;;;5101697;28;19916;-74
2022/09/16 04:08:52;;;;;;;;;;;11.20;99.90;;;;;;5087490;28;19908;-74
2022/09/16 04:11:18;;;;;;;;;;;11.10;99.90;;;;;;5091228;28;20010;-74
2022/09/16 04:13:43;;;;;;;;;;;11.10;99.90;;;;;;5080690;28;20425;-74
2022/09/16 04:16:09;;;;;;;;;;;11.00;99.90;;;;;;5110362;28;19912;-74
2022/09/16 04:18:34;;;;;;;;;;;11.00;99.90;;;;;;5105399;28;19997;-74
2022/09/16 04:21:01;;;;;;;;;;;11.00;99.90;;;;;;5097875;28;19924;-74
2022/09/16 04:23:27;;;;;;;;;;;11.00;99.90;;;;;;5100368;28;19919;-74
2022/09/16 04:25:56;;;;;;;;;;;11.00;99.90;;;;;;5098614;28;20016;-74
2022/09/16 04:28:21;;;;;;;;;;;11.00;99.90;;;;;;5078437;28;19916;-74
2022/09/16 04:30:47;;;;;;;;;;;11.00;99.90;;;;;;5107017;28;19915;-74
2022/09/16 04:33:12;;;;;;;;;;;11.00;99.90;;;;;;5098341;28;20311;-74
2022/09/16 04:35:38;;;;;;;;;;;11.00;99.90;;;;;;5096106;28;19912;-74
2022/09/16 04:38:04;;;;;;;;;;;11.00;99.90;;;;;;5095777;28;19930;-73
2022/09/16 04:40:29;;;;;;;;;;;11.00;99.90;;;;;;5096241;28;20003;-74
2022/09/16 04:42:55;;;;;;;;;;;11.10;99.90;;;;;;5104125;28;19920;-74
2022/09/16 04:45:20;;;;;;;;;;;11.20;99.90;;;;;;5098819;28;20246;-76
2022/09/16 04:47:46;;;;;;;;;;;11.30;99.90;;;;;;5112778;28;19915;-75
2022/09/16 04:50:12;;;;;;;;;;;11.30;99.90;;;;;;5099080;28;19915;-75
2022/09/16 04:52:37;;;;;;;;;;;11.30;99.90;;;;;;5103511;28;20314;-75
2022/09/16 04:55:03;;;;;;;;;;;11.30;99.90;;;;;;5078853;28;19960;-74
2022/09/16 04:57:30;;;;;;;;;;;11.30;99.90;;;;;;5103877;28;19998;-74
2022/09/16 04:59:56;;;;;;;;;;;11.20;99.90;;;;;;5099376;28;20374;-74
2022/09/16 05:02:22;;;;;;;;;;;11.20;99.90;;;;;;5088871;28;19920;-74
2022/09/16 05:04:47;;;;;;;;;;;11.30;99.90;;;;;;5100259;28;19912;-74
2022/09/16 05:07:13;;;;;;;;;;;11.40;99.90;;;;;;5090568;28;20222;-74
2022/09/16 05:09:38;;;;;;;;;;;11.50;99.90;;;;;;5102088;28;19912;-76
2022/09/16 05:12:04;;;;;;;;;;;11.40;99.90;;;;;;5109456;28;20291;-76
2022/09/16 05:14:30;;;;;;;;;;;11.30;99.90;;;;;;5104519;28;20326;-77
2022/09/16 05:16:56;;;;;;;;;;;11.20;99.90;;;;;;5102016;28;19928;-76
2022/09/16 05:19:21;;;;;;;;;;;11.20;99.90;;;;;;5105742;28;19924;-76
2022/09/16 05:21:47;;;;;;;;;;;11.20;99.90;;;;;;5077613;28;19966;-75
2022/09/16 05:24:13;;;;;;;;;;;11.20;99.90;;;;;;5099163;28;19916;-75
2022/09/16 05:26:43;;;;;;;;;;;11.20;99.90;;;;;;5108159;28;20271;-75
2022/09/16 05:29:13;;;;;;;;;;;11.20;99.90;;;;;;5095969;28;19912;-75
2022/09/16 05:31:40;;;;;;;;;;;11.20;99.90;;;;;;5077953;28;19912;-74
2022/09/16 05:34:15;;;;;;;;;;;11.30;99.90;;;;;;5108882;28;19916;-74
2022/09/16 05:36:42;;;;;;;;;;;11.30;99.90;;;;;;5085395;28;19912;-75
2022/09/16 05:39:11;;;;;;;;;;;11.30;99.90;;;;;;5076652;28;20292;-74
2022/09/16 05:41:37;;;;;;;;;;;11.30;99.90;;;;;;5083119;28;19963;-74
2022/09/16 05:44:03;;;;;;;;;;;11.30;99.90;;;;;;5114445;28;19970;-74
2022/09/16 05:46:28;;;;;;;;;;;11.30;99.90;;;;;;5108941;28;19923;-74
2022/09/16 05:48:54;;;;;;;;;;;11.20;99.90;;;;;;5077339;28;19912;-74
2022/09/16 05:51:21;;;;;;;;;;;11.30;99.90;;;;;;5112332;28;20048;-74
2022/09/16 05:53:48;;;;;;;;;;;11.30;99.90;;;;;;5088086;28;19912;-74
2022/09/16 05:56:14;;;;;;;;;;;11.30;99.90;;;;;;5096571;28;20311;-74
2022/09/16 05:58:40;;;;;;;;;;;11.40;99.90;;;;;;5090695;28;19923;-74
2022/09/16 06:01:07;;;;;;;;;;;11.50;99.90;;;;;;5088848;28;19919;-74
2022/09/16 06:03:33;;;;;;;;;;;11.50;99.90;;;;;;5102651;28;19945;-74
2022/09/16 06:06:04;;;;;;;;;;;11.60;99.90;;;;;;5087685;28;19919;-74
2022/09/16 06:08:30;;;;;;;;;;;11.60;99.90;;;;;;5108940;28;20308;-77
2022/09/16 06:10:59;;;;;;;;;;;11.80;99.90;;;;;;5108023;28;20314;-75
2022/09/16 06:13:24;;;;;;;;;;;11.80;99.90;;;;;;5087060;28;19922;-76
2022/09/16 06:15:50;;;;;;;;;;;11.90;99.90;;;;;;5102708;28;19916;-74
2022/09/16 06:18:17;;;;;;;;;;;11.90;99.90;;;;;;5087787;28;19963;-75
2022/09/16 06:20:43;;;;;;;;;;;11.90;99.90;;;;;;5081392;28;19928;-75
2022/09/16 06:23:09;;;;;;;;;;;11.90;99.90;;;;;;5107448;28;20308;-75
2022/09/16 06:25:34;;;;;;;;;;;11.90;99.90;;;;;;5106663;28;19962;-76
2022/09/16 06:28:00;;;;;;;;;;;11.80;99.90;;;;;;5108422;28;19916;-77
2022/09/16 06:30:26;;;;;;;;;;;11.70;99.90;;;;;;5083712;28;19919;-78
2022/09/16 06:32:51;;;;;;;;;;;11.60;99.90;;;;;;5107063;28;19918;-75
2022/09/16 06:35:17;;;;;;;;;;;11.50;99.90;;;;;;5100303;28;19922;-77
2022/09/16 06:37:42;;;;;;;;;;;11.40;99.90;;;;;;5096123;28;19920;-74
2022/09/16 06:40:08;;;;;;;;;;;11.30;99.90;;;;;;5096136;28;19920;-74
2022/09/16 06:42:34;;;;;;;;;;;11.20;99.90;;;;;;5086323;28;19957;-74
2022/09/16 06:44:59;;;;;;;;;;;11.20;99.90;;;;;;5104753;28;19916;-74
2022/09/16 06:47:25;;;;;;;;;;;11.20;99.90;;;;;;5087781;28;19966;-74
2022/09/16 06:49:51;;;;;;;;;;;11.20;99.90;;;;;;5103390;28;19961;-73
2022/09/16 06:52:18;;;;;;;;;;;11.30;99.90;;;;;;5098271;28;20223;-74
2022/09/16 06:54:43;;;;;;;;;;;11.50;99.90;;;;;;5103831;28;19916;-73
2022/09/16 06:57:09;;;;;;;;;;;11.60;99.90;;;;;;5108465;28;19942;-74
2022/09/16 06:59:34;;;;;;;;;;;11.70;99.90;;;;;;5083834;28;19942;-72
2022/09/16 07:02:00;;;;;;;;;;;11.70;99.90;;;;;;5098409;28;20299;-74
2022/09/16 07:04:26;;;;;;;;;;;11.80;99.90;;;;;;5106392;28;19920;-74
2022/09/16 07:06:51;;;;;;;;;;;12.20;99.90;;;;;;5105558;28;19913;-73
2022/09/16 07:09:17;;;;;;;;;;;12.80;99.90;;;;;;5105987;28;19912;-73
2022/09/16 07:11:42;;;;;;;;;;;13.60;99.90;;;;;;5104713;28;19926;-73
2022/09/16 07:14:08;;;;;;;;;;;14.50;99.90;;;;;;5109211;28;19922;-73
2022/09/16 07:16:34;;;;;;;;;;;15.20;99.90;;;;;;5104617;28;20309;-73
2022/09/16 07:18:59;;;;;;;;;;;15.60;99.90;;;;;;5103110;28;20012;-73
2022/09/16 07:21:29;;;;;;;;;;;15.70;99.90;;;;;;5100010;28;20365;-73
2022/09/16 07:23:56;;;;;;;;;;;15.70;99.90;;;;;;5095526;28;19916;-72
2022/09/16 07:26:30;;;;;;;;;;;15.10;99.90;;;;;;5088994;28;19912;-72
2022/09/16 07:28:57;;;;;;;;;;;14.30;99.90;;;;;;5099268;28;19923;-73
2022/09/16 07:31:25;;;;;;;;;;;13.50;99.90;;;;;;5101456;28;19916;-77
2022/09/16 07:33:51;;;;;;;;;;;13.20;99.90;;;;;;5108896;27;19912;-74
2022/09/16 07:36:18;;;;;;;;;;;13.00;99.90;;;;;;5103192;28;20244;-75
2022/09/16 07:38:43;;;;;;;;;;;12.80;99.90;;;;;;5094727;28;20367;-75
2022/09/16 07:41:11;;;;;;;;;;;12.60;99.90;;;;;;5110447;28;19912;-75
2022/09/16 07:43:37;;;;;;;;;;;12.40;99.90;;;;;;5098174;28;20045;-73
2022/09/16 07:46:03;;;;;;;;;;;12.30;99.90;;;;;;5108002;28;19915;-74
2022/09/16 07:48:29;;;;;;;;;;;12.20;99.90;;;;;;5097271;28;19931;-75
2022/09/16 07:50:56;;;;;;;;;;;12.10;99.90;;;;;;5098056;28;19938;-74
2022/09/16 07:53:22;;;;;;;;;;;12.00;99.90;;;;;;5109147;28;19920;-74
2022/09/16 07:55:48;;;;;;;;;;;11.90;99.90;;;;;;5107343;28;20014;-74
2022/09/16 07:58:13;;;;;;;;;;;11.90;99.90;;;;;;5103705;28;19920;-74
2022/09/16 08:00:39;;;;;;;;;;;12.10;99.90;;;;;;5113436;28;19959;-74
2022/09/16 08:03:18;;;;;;;;;;;12.80;99.90;;;;;;5096429;28;20310;-74
2022/09/16 08:05:50;;;;;;;;;;;13.50;99.90;;;;;;5085242;28;19920;-74
2022/09/16 08:08:16;;;;;;;;;;;13.90;99.90;;;;;;5086912;28;19920;-74
2022/09/16 08:10:42;;;;;;;;;;;14.60;99.90;;;;;;5085990;28;20302;-75
2022/09/16 08:13:08;;;;;;;;;;;15.10;99.90;;;;;;5104099;28;19922;-75
2022/09/16 08:15:34;;;;;;;;;;;15.90;99.90;;;;;;5103788;28;19916;-74
2022/09/16 08:17:59;;;;;;;;;;;16.60;99.90;;;;;;5101796;28;19912;-76
2022/09/16 08:20:25;;;;;;;;;;;16.90;99.90;;;;;;5100709;28;20306;-74
2022/09/16 08:22:53;;;;;;;;;;;17.10;99.90;;;;;;5102897;28;20462;-75
2022/09/16 08:25:19;;;;;;;;;;;17.60;99.90;;;;;;5102649;28;20238;-74
2022/09/16 08:27:44;;;;;;;;;;;17.90;99.90;;;;;;5102400;28;19916;-74
2022/09/16 08:30:10;;;;;;;;;;;17.90;99.90;;;;;;5101936;28;19955;-75
2022/09/16 08:32:36;;;;;;;;;;;17.80;99.90;;;;;;5087699;28;19951;-73
2022/09/16 08:35:02;;;;;;;;;;;17.70;99.90;;;;;;5099887;28;19920;-72
2022/09/16 08:37:27;;;;;;;;;;;17.60;99.90;;;;;;5103741;28;19922;-71
2022/09/16 08:39:53;;;;;;;;;;;17.00;99.90;;;;;;5101093;28;19924;-73
2022/09/16 08:42:30;;;;;;;;;;;16.20;99.90;;;;;;5101695;28;19955;-73
2022/09/16 08:45:08;;;;;;;;;;;15.60;99.90;;;;;;5082295;28;19920;-73
2022/09/16 08:47:37;;;;;;;;;;;15.00;99.90;;;;;;5083251;28;20380;-74
2022/09/16 08:50:05;;;;;;;;;;;14.50;99.90;;;;;;5099936;28;19922;-72
2022/09/16 08:52:31;;;;;;;;;;;14.10;99.90;;;;;;5102926;28;19920;-73
2022/09/16 08:55:10;;;;;;;;;;;13.90;99.90;;;;;;5082382;28;19912;-74
2022/09/16 08:57:39;;;;;;;;;;;13.60;99.90;;;;;;5103897;28;20039;-72
2022/09/16 09:00:15;;;;;;;;;;;13.50;99.90;;;;;;5080811;28;19924;-72
2022/09/16 09:02:49;;;;;;;;;;;13.60;99.90;;;;;;5101033;28;19966;-75
2022/09/16 09:05:17;;;;;;;;;;;13.40;99.90;;;;;;5100574;28;19920;-75
2022/09/16 09:07:49;;;;;;;;;;;13.40;99.90;;;;;;5103950;28;19912;-74
2022/09/16 09:10:23;;;;;;;;;;;13.30;99.90;;;;;;5096796;28;19929;-75
2022/09/16 09:12:54;;;;;;;;;;;13.20;99.90;;;;;;5094169;28;19922;-75
2022/09/16 09:15:32;;;;;;;;;;;13.00;99.90;;;;;;5102307;28;19912;-76
2022/09/16 09:18:03;;;;;;;;;;;12.80;99.90;;;;;;5101722;28;19942;-76
2022/09/16 09:20:39;;;;;;;;;;;12.60;99.90;;;;;;5098015;28;20441;-75
2022/09/16 09:23:23;;;;;;;;;;;12.50;99.90;;;;;;5112473;27;19959;-74
2022/09/16 09:25:49;;;;;;;;;;;12.60;99.90;;;;;;5104427;28;20315;-73
2022/09/16 09:28:29;;;;;;;;;;;13.20;99.90;;;;;;5095380;28;20007;-73
2022/09/16 09:31:10;;;;;;;;;;;14.00;99.90;;;;;;5096208;28;20226;-74
2022/09/16 09:33:36;;;;;;;;;;;14.70;99.90;;;;;;5082189;28;20022;-74
2022/09/16 09:36:21;;;;;;;;;;;15.20;99.90;;;;;;5093411;28;19908;-74
2022/09/16 09:38:47;;;;;;;;;;;15.30;99.90;;;;;;5103637;28;19982;-75
2022/09/16 09:41:17;;;;;;;;;;;15.20;99.90;;;;;;5103310;28;20327;-73
2022/09/16 09:44:00;;;;;;;;;;;14.90;99.90;;;;;;5100945;28;19916;-74
2022/09/16 09:46:46;;;;;;;;;;;14.50;99.90;;;;;;5102675;28;19919;-74
2022/09/16 09:49:33;;;;;;;;;;;13.90;99.90;;;;;;5090607;28;19916;-75
2022/09/16 09:52:02;;;;;;;;;;;13.40;99.90;;;;;;5079697;28;20379;-73
2022/09/16 09:54:30;;;;;;;;;;;13.10;99.90;;;;;;5102052;28;19919;-72
2022/09/16 09:56:59;;;;;;;;;;;12.90;99.90;;;;;;5093746;28;19923;-74
2022/09/16 09:59:43;;;;;;;;;;;12.80;99.90;;;;;;5096542;28;19920;-74
2022/09/16 10:02:14;;;;;;;;;;;12.70;99.90;;;;;;5101137;28;19919;-74
2022/09/16 10:04:39;;;;;;;;;;;12.80;99.90;;;;;;5097348;28;20471;-73
2022/09/16 10:07:05;;;;;;;;;;;12.80;99.90;;;;;;5081153;28;19927;-72
2022/09/16 10:09:32;;;;;;;;;;;12.90;99.90;;;;;;5099079;28;20289;-73
2022/09/16 10:11:58;;;;;;;;;;;12.90;99.90;;;;;;5100090;28;20253;-73
2022/09/16 10:14:31;;;;;;;;;;;12.90;99.90;;;;;;5083327;28;19919;-73
2022/09/16 10:17:02;;;;;;;;;;;13.00;99.90;;;;;;5083242;28;19970;-71
2022/09/16 10:19:28;;;;;;;;;;;13.10;99.90;;;;;;5100539;28;19977;-72
2022/09/16 10:21:55;;;;;;;;;;;13.10;99.90;;;;;;5101666;28;19947;-72
2022/09/16 10:24:31;;;;;;;;;;;13.20;99.90;;;;;;5081227;28;19998;-72
2022/09/16 10:26:58;;;;;;;;;;;13.20;99.90;;;;;;5100770;28;20326;-74
2022/09/16 10:29:23;;;;;;;;;;;13.20;99.90;;;;;;5082591;28;19956;-72
2022/09/16 10:31:49;;;;;;;;;;;13.60;99.90;;;;;;5081860;28;19960;-72
2022/09/16 10:34:41;;;;;;;;;;;14.00;99.90;;;;;;5098293;28;19920;-73
2022/09/16 10:37:11;;;;;;;;;;;14.20;99.90;;;;;;5096261;28;19920;-73
2022/09/16 10:39:38;;;;;;;;;;;14.40;99.90;;;;;;5077255;28;20019;-73
2022/09/16 10:42:03;;;;;;;;;;;14.60;99.90;;;;;;5101341;28;20002;-74
2022/09/16 10:44:30;;;;;;;;;;;14.80;99.90;;;;;;5068613;28;20034;-75
2022/09/16 10:46:57;;;;;;;;;;;14.90;99.90;;;;;;5109744;28;19916;-74
2022/09/16 10:49:36;;;;;;;;;;;15.00;99.90;;;;;;5094598;28;19916;-75
2022/09/16 10:52:15;;;;;;;;;;;15.00;99.90;;;;;;5083212;28;19911;-74
2022/09/16 10:54:41;;;;;;;;;;;14.90;99.90;;;;;;5088963;28;20581;-74
2022/09/16 10:57:27;;;;;;;;;;;14.80;99.90;;;;;;5080060;28;19918;-73
2022/09/16 10:59:56;;;;;;;;;;;14.70;99.90;;;;;;5099336;28;20191;-72
2022/09/16 11:02:33;;;;;;;;;;;14.60;99.90;;;;;;5086831;28;20064;-74
2022/09/16 11:05:02;;;;;;;;;;;14.40;99.90;;;;;;5110109;27;20546;-74
2022/09/16 11:07:36;;;;;;;;;;;14.30;99.90;;;;;;5099110;28;19916;-73
2022/09/16 11:10:13;;;;;;;;;;;14.10;99.90;;;;;;5084162;28;20253;-75
2022/09/16 11:12:39;;;;;;;;;;;13.60;99.90;;;;;;5096919;28;19947;-75
2022/09/16 11:15:12;;;;;;;;;;;13.40;99.90;;;;;;5085264;28;19958;-74
2022/09/16 11:17:41;;;;;;;;;;;13.20;99.90;;;;;;5081619;28;20314;-75
2022/09/16 11:20:37;;;;;;;;;;;13.00;99.90;;;;;;5100895;28;19967;-76
2022/09/16 11:23:22;;;;;;;;;;;12.90;99.90;;;;;;5096626;28;19912;-75
2022/09/16 11:26:03;;;;;;;;;;;12.90;99.90;;;;;;5080311;28;20354;-76
2022/09/16 11:28:58;;;;;;;;;;;13.00;99.90;;;;;;5079722;28;19908;-75
2022/09/16 11:31:44;;;;;;;;;;;13.40;99.90;;;;;;5047287;28;19928;-77
2022/09/16 11:34:39;;;;;;;;;;;14.10;99.90;;;;;;5103293;28;19912;-75
2022/09/16 11:37:18;;;;;;;;;;;14.60;99.90;;;;;;5033847;28;19913;-75
2022/09/16 11:40:08;;;;;;;;;;;15.00;99.90;;;;;;5030803;28;19925;-74
2022/09/16 11:42:38;;;;;;;;;;;15.50;99.90;;;;;;5010985;28;19917;-74
2022/09/16 11:45:14;;;;;;;;;;;15.90;99.90;;;;;;5032767;28;20380;-75
2022/09/16 11:47:45;;;;;;;;;;;16.10;99.90;;;;;;5031348;28;20220;-74
2022/09/16 11:50:26;;;;;;;;;;;15.90;99.90;;;;;;5022347;28;19968;-73
2022/09/16 11:53:07;;;;;;;;;;;15.80;99.90;;;;;;5024665;28;19936;-71
2022/09/16 11:55:51;;;;;;;;;;;16.00;99.90;;;;;;5032265;28;20250;-73
2022/09/16 11:58:35;;;;;;;;;;;16.30;99.90;;;;;;5006348;28;20018;-72
2022/09/16 12:01:11;;;;;;;;;;;16.60;99.90;;;;;;5031808;28;19920;-73
2022/09/16 12:03:41;;;;;;;;;;;16.90;99.90;;;;;;5032144;28;19914;-74
2022/09/16 12:06:10;;;;;;;;;;;17.10;99.90;;;;;;5024307;28;19913;-74
2022/09/16 12:08:47;;;;;;;;;;;17.40;99.90;;;;;;5032590;28;19971;-73
2022/09/16 12:11:13;;;;;;;;;;;17.40;99.90;;;;;;5026479;28;19928;-73
2022/09/16 12:13:40;;;;;;;;;;;17.20;99.90;;;;;;5067025;28;20242;-74
2022/09/16 12:16:12;;;;;;;;;;;16.70;99.90;;;;;;5098815;28;19919;-72
2022/09/16 12:18:43;;;;;;;;;;;16.20;99.90;;;;;;5088016;28;20030;-73
2022/09/16 12:21:18;;;;;;;;;;;15.70;99.90;;;;;;5103732;28;19920;-73
2022/09/16 12:23:47;;;;;;;;;;;15.40;99.90;;;;;;5100729;28;19912;-73
2022/09/16 12:26:16;;;;;;;;;;;15.10;99.90;;;;;;5097178;28;19916;-71
2022/09/16 12:29:00;;;;;;;;;;;14.90;99.90;;;;;;5107557;28;20009;-72
2022/09/16 12:31:26;;;;;;;;;;;14.70;99.90;;;;;;5092389;28;19916;-73
2022/09/16 12:33:55;;;;;;;;;;;14.90;99.90;;;;;;5090838;28;19919;-73
2022/09/16 12:36:28;;;;;;;;;;;15.30;99.90;;;;;;5100536;28;20006;-73
2022/09/16 12:38:56;;;;;;;;;;;15.80;99.90;;;;;;5097841;28;19924;-77
2022/09/16 12:41:29;;;;;;;;;;;16.30;99.90;;;;;;5099769;28;19908;-74
2022/09/16 12:44:13;;;;;;;;;;;16.10;99.90;;;;;;5083222;28;19908;-74
2022/09/16 12:46:54;;;;;;;;;;;16.00;99.90;;;;;;5082002;28;19949;-74
2022/09/16 12:49:25;;;;;;;;;;;15.90;99.90;;;;;;5100312;28;19916;-73
2022/09/16 12:52:02;;;;;;;;;;;15.90;99.90;;;;;;5101360;28;20207;-72
2022/09/16 12:54:50;;;;;;;;;;;16.10;99.90;;;;;;5096265;28;19916;-75
2022/09/16 12:57:17;;;;;;;;;;;16.50;99.90;;;;;;5095857;28;19981;-74
2022/09/16 12:59:58;;;;;;;;;;;16.70;99.90;;;;;;5083326;28;20225;-74
2022/09/16 13:02:35;;;;;;;;;;;16.60;99.90;;;;;;5099090;28;19994;-74
2022/09/16 13:05:13;;;;;;;;;;;16.30;99.90;;;;;;5093862;28;20222;-73
2022/09/16 13:07:39;;;;;;;;;;;16.20;99.90;;;;;;5086152;28;20010;-71
2022/09/16 13:10:06;;;;;;;;;;;16.10;99.90;;;;;;5098709;28;20022;-74
2022/09/16 13:12:31;;;;;;;;;;;16.30;99.90;;;;;;5081760;28;19912;-72
2022/09/16 13:14:58;;;;;;;;;;;16.50;99.90;;;;;;5096407;28;20016;-73
2022/09/16 13:17:28;;;;;;;;;;;16.60;99.90;;;;;;5081216;28;19947;-74
2022/09/16 13:19:55;;;;;;;;;;;16.40;99.90;;;;;;5102206;28;19920;-74
2022/09/16 13:22:24;;;;;;;;;;;16.10;99.90;;;;;;5101663;28;19912;-74
2022/09/16 13:24:53;;;;;;;;;;;15.90;99.90;;;;;;5100501;28;19985;-73
2022/09/16 13:27:35;;;;;;;;;;;15.60;99.90;;;;;;5097782;28;19957;-74
2022/09/16 13:30:11;;;;;;;;;;;15.10;99.90;;;;;;5100769;28;19934;-74
2022/09/16 13:32:41;;;;;;;;;;;14.70;99.90;;;;;;5079586;28;19924;-72
2022/09/16 13:35:17;;;;;;;;;;;14.50;99.90;;;;;;5098684;28;19916;-72
2022/09/16 13:37:42;;;;;;;;;;;14.50;99.90;;;;;;5099886;28;19920;-73
2022/09/16 13:40:18;;;;;;;;;;;14.90;99.90;;;;;;5094440;28;19916;-72
2022/09/16 13:42:44;;;;;;;;;;;15.30;99.90;;;;;;5099079;28;19974;-75
2022/09/16 13:45:28;;;;;;;;;;;15.60;99.90;;;;;;5103485;28;19954;-72
2022/09/16 13:47:53;;;;;;;;;;;15.60;99.90;;;;;;5086826;28;19915;-71
2022/09/16 13:50:21;;;;;;;;;;;15.50;99.90;;;;;;5111416;27;19943;-73
2022/09/16 13:52:47;;;;;;;;;;;15.40;99.90;;;;;;5102629;28;19934;-72
2022/09/16 13:55:21;;;;;;;;;;;15.30;99.90;;;;;;5103044;28;19919;-72
2022/09/16 13:58:01;;;;;;;;;;;15.00;99.90;;;;;;5100128;28;19924;-74
2022/09/16 14:00:50;;;;;;;;;;;14.90;99.90;;;;;;5099004;28;19924;-72
2022/09/16 14:03:19;;;;;;;;;;;14.80;99.90;;;;;;5079110;28;20397;-72
2022/09/16 14:05:45;;;;;;;;;;;15.10;99.90;;;;;;5099928;28;20007;-75
2022/09/16 14:08:15;;;;;;;;;;;15.40;99.90;;;;;;5080360;28;20259;-72
2022/09/16 14:10:44;;;;;;;;;;;15.70;99.90;;;;;;5099865;28;20003;-74
2022/09/16 14:13:18;;;;;;;;;;;15.90;99.90;;;;;;5081898;28;20015;-72
2022/09/16 14:15:49;;;;;;;;;;;16.10;99.90;;;;;;5099431;28;20014;-73
2022/09/16 14:18:16;;;;;;;;;;;16.10;99.90;;;;;;5079361;28;19924;-71
2022/09/16 14:20:54;;;;;;;;;;;16.10;99.90;;;;;;5098366;28;19928;-71
2022/09/16 14:23:22;;;;;;;;;;;16.10;99.90;;;;;;5095576;28;19964;-73
2022/09/16 14:25:48;;;;;;;;;;;16.00;99.90;;;;;;5079681;28;19927;-74
2022/09/16 14:28:17;;;;;;;;;;;16.10;99.90;;;;;;5096566;28;19912;-72
2022/09/16 14:30:50;;;;;;;;;;;16.20;99.90;;;;;;5099173;28;19916;-73
2022/09/16 14:33:16;;;;;;;;;;;16.10;99.90;;;;;;5099489;28;20487;-74